Time;durP1;ratioP1;P1;durP2;ratioP2;P2;SDS_P1;SDS_P2;PMS_P1;PMS_P2;Temp;Humidity;BMP_temperature;BMP_pressure;BME280_temperature;BME280_humidity;BME280_pressure;Samples;Min_cycle;Max_cycle;Signal;HPM_P1;HPM_P2
2024/01/31 00:00:10;;;;;;;0.80;0.40;;;;;;;-143.84;80.65;45268.06;5071657;28;20521;-62
2024/01/31 00:02:39;;;;;;;1.80;1.07;;;;;;;-143.84;80.01;45247.09;5075171;28;20447;-60
2024/01/31 00:05:07;;;;;;;0.80;0.47;;;;;;;-143.84;79.32;45279.47;5075109;28;20452;-61
2024/01/31 00:07:34;;;;;;;0.80;0.53;;;;;;;-143.84;78.40;45285.19;5074678;28;20493;-62
2024/01/31 00:10:01;;;;;;;0.80;0.40;;;;;;;-143.84;77.83;45264.25;5074874;28;20438;-61
2024/01/31 00:12:28;;;;;;;0.80;0.40;;;;;;;-143.84;77.63;45249.00;5074362;28;20555;-60
2024/01/31 00:14:55;;;;;;;0.80;0.60;;;;;;;-143.84;77.59;45275.66;5074570;28;20878;-61
2024/01/31 00:17:22;;;;;;;0.70;0.40;;;;;;;-143.84;77.53;45247.09;5074815;28;20429;-61
2024/01/31 00:19:51;;;;;;;0.80;0.47;;;;;;;-143.84;77.63;45254.72;5074664;28;20528;-61
2024/01/31 00:22:18;;;;;;;0.80;0.70;;;;;;;-143.84;78.17;45275.66;5074512;28;20505;-62
2024/01/31 00:24:45;;;;;;;0.80;0.50;;;;;;;-143.84;78.75;45269.97;5074282;28;20447;-61
2024/01/31 00:27:12;;;;;;;0.80;0.40;;;;;;;-143.84;79.16;45252.81;5074328;28;20444;-61
2024/01/31 00:29:39;;;;;;;0.80;0.60;;;;;;;-143.84;80.43;45269.97;5074102;28;20443;-61
2024/01/31 00:32:07;;;;;;;0.80;0.40;;;;;;;-143.84;80.77;45275.66;5074000;28;20439;-61
2024/01/31 00:34:34;;;;;;;1.20;1.10;;;;;;;-143.84;80.94;45266.16;5073984;28;20490;-60
2024/01/31 00:37:03;;;;;;;1.10;0.80;;;;;;;-143.84;81.42;45289.00;5074163;28;20444;-61
2024/01/31 00:39:32;;;;;;;0.80;0.43;;;;;;;-143.84;81.75;45287.09;5092215;28;20523;-60
2024/01/31 00:41:59;;;;;;;0.90;0.60;;;;;;;-143.84;82.16;45271.88;5094248;28;20792;-60
2024/01/31 00:44:27;;;;;;;1.17;1.00;;;;;;;-143.84;82.84;45285.19;5094260;28;20500;-61
2024/01/31 00:46:54;;;;;;;1.23;1.13;;;;;;;-143.84;82.74;45289.00;5094067;28;20927;-61
2024/01/31 00:49:21;;;;;;;1.00;0.80;;;;;;;-143.84;83.20;45277.56;5094327;28;20439;-61
2024/01/31 00:51:48;;;;;;;0.80;0.50;;;;;;;-143.84;83.03;45268.06;5094052;28;20439;-60
2024/01/31 00:54:16;;;;;;;0.80;0.43;;;;;;;-143.84;82.84;45254.72;5094157;28;20442;-61
2024/01/31 00:56:44;;;;;;;0.80;0.60;;;;;;;-143.84;83.00;45275.66;5094738;28;20434;-61
2024/01/31 00:59:11;;;;;;;0.80;0.60;;;;;;;-143.84;83.09;45262.34;5093833;28;20534;-61
2024/01/31 01:01:38;;;;;;;0.80;0.67;;;;;;;-143.84;83.22;45279.47;5094198;28;20495;-61
2024/01/31 01:04:05;;;;;;;0.80;0.40;;;;;;;-143.84;83.25;45283.28;5093839;28;20473;-60
2024/01/31 01:06:32;;;;;;;1.00;0.80;;;;;;;-143.84;83.13;45266.16;5093923;28;21263;-61
2024/01/31 01:08:59;;;;;;;1.77;1.67;;;;;;;-143.84;83.02;45254.72;5094001;28;21263;-60
2024/01/31 01:11:30;;;;;;;0.80;0.50;;;;;;;-143.84;82.94;45289.00;5093272;28;21242;-60
2024/01/31 01:13:57;;;;;;;0.80;0.40;;;;;;;-143.84;82.71;45281.38;5093546;28;20489;-61
2024/01/31 01:16:24;;;;;;;0.80;0.50;;;;;;;-143.84;82.95;45283.28;5094143;28;20484;-61
2024/01/31 01:18:51;;;;;;;0.80;0.40;;;;;;;-143.84;82.98;45260.44;5093830;28;20547;-59
2024/01/31 01:21:18;;;;;;;0.80;0.40;;;;;;;-143.84;82.64;45281.38;5093430;28;20488;-60
2024/01/31 01:23:45;;;;;;;1.50;1.00;;;;;;;-143.84;82.35;45269.97;5093794;28;20471;-60
2024/01/31 01:26:13;;;;;;;0.80;0.50;;;;;;;-143.84;82.08;45273.78;5093446;28;20491;-61
2024/01/31 01:28:43;;;;;;;0.80;0.47;;;;;;;-143.84;82.44;45289.00;5093666;28;20438;-61
2024/01/31 01:31:12;;;;;;;0.80;0.40;;;;;;;-143.84;82.29;45306.13;5093652;28;20443;-61
2024/01/31 01:33:39;;;;;;;4.53;1.13;;;;;;;-143.84;82.44;45269.97;5093793;28;20478;-61
2024/01/31 01:36:07;;;;;;;0.80;0.50;;;;;;;-143.84;82.12;45285.19;5093283;28;20500;-61
2024/01/31 01:38:35;;;;;;;0.80;0.50;;;;;;;-143.84;81.52;45296.63;5092886;28;20495;-60
2024/01/31 01:41:03;;;;;;;0.90;0.80;;;;;;;-143.84;81.84;45269.97;5093468;28;20470;-60
2024/01/31 01:43:30;;;;;;;0.80;0.40;;;;;;;-143.84;81.96;45273.78;5093580;28;20514;-61
2024/01/31 01:46:09;;;;;;;0.90;0.80;;;;;;;-143.84;81.74;45250.91;5093043;28;20946;-60
2024/01/31 01:48:36;;;;;;;2.07;1.33;;;;;;;-143.84;81.98;45258.53;5093105;28;20448;-61
2024/01/31 01:51:04;;;;;;;0.93;0.73;;;;;;;-143.84;82.17;45266.16;5093348;28;20476;-61
2024/01/31 01:53:34;;;;;;;0.80;0.73;;;;;;;-143.84;82.50;45285.19;5092681;28;20471;-60
2024/01/31 01:56:04;;;;;;;0.80;0.40;;;;;;;-143.84;82.54;45268.06;5092733;28;20430;-60
2024/01/31 01:58:32;;;;;;;0.80;0.40;;;;;;;-143.84;83.19;45273.78;5092947;28;20435;-60
2024/01/31 02:01:02;;;;;;;1.73;1.50;;;;;;;-143.84;83.72;45262.34;5093385;28;20476;-60
2024/01/31 02:03:30;;;;;;;2.20;1.27;;;;;;;-143.84;84.39;45249.00;5092734;28;20451;-61
2024/01/31 02:05:58;;;;;;;0.80;0.50;;;;;;;-143.84;84.62;45296.63;5092893;28;20438;-60
2024/01/31 02:08:27;;;;;;;3.27;0.77;;;;;;;-143.84;84.77;45273.78;5093008;28;20455;-61
2024/01/31 02:10:54;;;;;;;0.80;0.50;;;;;;;-143.84;84.97;45283.28;5092382;28;20870;-60
2024/01/31 02:13:21;;;;;;;0.80;0.40;;;;;;;-143.84;85.02;45289.00;5092761;28;21065;-61
2024/01/31 02:15:53;;;;;;;0.90;0.77;;;;;;;-143.84;85.09;45273.78;5092640;28;20437;-61
2024/01/31 02:18:22;;;;;;;1.10;1.00;;;;;;;-143.84;85.54;45277.56;5092413;28;20437;-60
2024/01/31 02:20:49;;;;;;;0.80;0.40;;;;;;;-143.84;85.47;45292.81;5092731;28;20470;-60
2024/01/31 02:23:18;;;;;;;1.80;1.37;;;;;;;-143.84;85.97;45281.38;5092291;28;20429;-60
2024/01/31 02:25:46;;;;;;;2.60;0.93;;;;;;;-143.84;85.81;45266.16;5092403;28;20447;-60
2024/01/31 02:28:13;;;;;;;0.80;0.50;;;;;;;-143.84;85.96;45296.63;5092397;28;20438;-61
2024/01/31 02:30:40;;;;;;;1.10;1.00;;;;;;;-143.84;85.94;45292.81;5092679;28;20435;-60
2024/01/31 02:33:08;;;;;;;1.57;1.03;;;;;;;-143.84;85.67;45287.09;5092258;28;20497;-61
2024/01/31 02:35:36;;;;;;;2.70;1.10;;;;;;;-143.84;85.72;45269.97;5092314;28;20510;-61
2024/01/31 02:38:03;;;;;;;0.80;0.60;;;;;;;-143.84;85.66;45262.34;5085674;28;20494;-60
2024/01/31 02:40:32;;;;;;;1.47;0.97;;;;;;;-143.84;85.20;45262.34;5071858;28;20528;-59
2024/01/31 02:42:59;;;;;;;0.90;0.80;;;;;;;-143.84;85.14;45277.56;5071988;28;20470;-60
2024/01/31 02:45:27;;;;;;;1.20;1.10;;;;;;;-143.84;85.31;45281.38;5071536;28;20443;-61
2024/01/31 02:47:54;;;;;;;0.80;0.60;;;;;;;-143.84;85.40;45260.44;5071935;28;20521;-61
2024/01/31 02:50:21;;;;;;;1.13;1.03;;;;;;;-143.84;85.25;45289.00;5071848;28;20432;-60
2024/01/31 02:52:49;;;;;;;0.80;0.60;;;;;;;-143.84;85.38;45235.69;5071758;28;20434;-62
2024/01/31 02:55:16;;;;;;;16.47;2.40;;;;;;;-143.84;85.10;45285.19;5071490;28;20439;-60
2024/01/31 02:57:45;;;;;;;0.80;0.63;;;;;;;-143.84;84.97;45283.28;5071694;28;20916;-60
2024/01/31 03:00:14;;;;;;;1.03;0.93;;;;;;;-143.84;84.92;45311.84;5071541;28;20520;-61
2024/01/31 03:02:43;;;;;;;0.80;0.70;;;;;;;-143.84;85.00;45269.97;5071555;28;20950;-61
2024/01/31 03:05:10;;;;;;;0.80;0.60;;;;;;;-143.84;84.79;45254.72;5071745;28;20437;-60
2024/01/31 03:07:38;;;;;;;0.80;0.50;;;;;;;-143.84;84.83;45283.28;5071542;28;20440;-60
2024/01/31 03:10:06;;;;;;;0.80;0.60;;;;;;;-143.84;84.68;45315.66;5070437;28;21388;-60
2024/01/31 03:12:33;;;;;;;2.60;2.20;;;;;;;-143.84;84.33;45254.72;5070616;28;20483;-60
2024/01/31 03:15:02;;;;;;;2.13;1.10;;;;;;;-143.84;83.90;45279.47;5069675;28;20454;-61
2024/01/31 03:17:34;;;;;;;0.80;0.40;;;;;;;-143.84;83.93;45281.38;5069336;28;20439;-61
2024/01/31 03:20:03;;;;;;;2.03;1.70;;;;;;;-143.84;83.84;45281.38;5071233;28;20500;-61
2024/01/31 03:22:30;;;;;;;0.80;0.50;;;;;;;-143.84;83.49;45275.66;5071391;28;20438;-61
2024/01/31 03:24:57;;;;;;;0.80;0.60;;;;;;;-143.84;83.46;45289.00;5071309;28;20434;-61
2024/01/31 03:27:25;;;;;;;0.80;0.60;;;;;;;-143.84;83.52;45283.28;5071553;28;20947;-61
2024/01/31 03:29:52;;;;;;;0.80;0.50;;;;;;;-143.84;83.24;45306.13;5071583;28;20424;-60
2024/01/31 03:32:20;;;;;;;0.80;0.40;;;;;;;-143.84;83.38;45292.81;5071230;28;20454;-61
2024/01/31 03:34:47;;;;;;;0.90;0.70;;;;;;;-143.84;83.34;45258.53;5070405;28;20529;-60
2024/01/31 03:37:14;;;;;;;0.93;0.70;;;;;;;-143.84;83.23;45285.19;5071357;28;20434;-60
2024/01/31 03:39:41;;;;;;;1.03;0.93;;;;;;;-143.84;83.40;45279.47;5071016;28;20537;-61
2024/01/31 03:42:08;;;;;;;1.70;1.60;;;;;;;-143.84;83.51;45298.53;5070970;28;20456;-61
2024/01/31 03:44:35;;;;;;;0.80;0.50;;;;;;;-143.84;83.29;45279.47;5071284;28;20760;-61
2024/01/31 03:47:02;;;;;;;0.80;0.60;;;;;;;-143.84;83.26;45289.00;5071039;28;20434;-61
2024/01/31 03:49:32;;;;;;;1.17;1.00;;;;;;;-143.84;83.61;45294.72;5070907;28;20490;-60
2024/01/31 03:51:59;;;;;;;0.83;0.73;;;;;;;-143.84;83.49;45289.00;5070809;28;21027;-60
2024/01/31 03:54:26;;;;;;;1.20;0.83;;;;;;;-143.84;83.49;45277.56;5070970;28;20846;-61
2024/01/31 03:56:53;;;;;;;0.80;0.60;;;;;;;-143.84;83.21;45271.88;5070895;28;20443;-60
2024/01/31 03:59:21;;;;;;;0.80;0.60;;;;;;;-143.84;83.33;45281.38;5070910;28;20437;-60
2024/01/31 04:01:50;;;;;;;1.23;1.13;;;;;;;-143.84;83.45;45268.06;5071021;28;20434;-61
2024/01/31 04:04:17;;;;;;;2.77;2.57;;;;;;;-143.84;83.55;45279.47;5070985;28;20445;-60
2024/01/31 04:06:46;;;;;;;0.80;0.40;;;;;;;-143.84;83.50;45252.81;5071356;28;20781;-61
2024/01/31 04:09:13;;;;;;;0.80;0.60;;;;;;;-143.84;83.63;45306.13;5070872;28;20457;-60
2024/01/31 04:11:40;;;;;;;1.47;1.07;;;;;;;-143.84;83.56;45285.19;5071047;28;20529;-60
2024/01/31 04:14:07;;;;;;;0.80;0.50;;;;;;;-143.84;83.61;45277.56;5070684;28;20430;-61
2024/01/31 04:16:34;;;;;;;1.33;1.13;;;;;;;-143.84;83.49;45269.97;5070500;28;20441;-60
2024/01/31 04:19:02;;;;;;;1.83;1.23;;;;;;;-143.84;83.14;45281.38;5070871;28;20821;-61
2024/01/31 04:21:29;;;;;;;1.47;1.10;;;;;;;-143.84;83.32;45245.19;5070896;28;21295;-61
2024/01/31 04:23:58;;;;;;;1.00;0.90;;;;;;;-143.84;82.87;45271.88;5070392;28;20445;-60
2024/01/31 04:26:25;;;;;;;1.10;0.90;;;;;;;-143.84;82.64;45271.88;5070654;28;20445;-60
2024/01/31 04:28:53;;;;;;;0.80;0.40;;;;;;;-143.84;82.41;45250.91;5070729;28;20924;-60
2024/01/31 04:31:20;;;;;;;0.80;0.50;;;;;;;-143.84;82.44;45266.16;5070619;28;20427;-60
2024/01/31 04:33:47;;;;;;;1.20;1.10;;;;;;;-143.84;82.27;45283.28;5070589;28;20485;-60
2024/01/31 04:36:14;;;;;;;0.80;0.50;;;;;;;-143.84;82.14;45268.06;5070935;28;20499;-60
2024/01/31 04:38:42;;;;;;;0.97;0.87;;;;;;;-143.84;82.05;45275.66;5070528;28;20496;-61
2024/01/31 04:41:10;;;;;;;0.80;0.80;;;;;;;-143.84;82.10;45277.56;5069926;28;20496;-60
2024/01/31 04:43:37;;;;;;;1.10;0.70;;;;;;;-143.84;82.24;45273.78;5070699;28;20491;-60
2024/01/31 04:46:04;;;;;;;3.23;3.03;;;;;;;-143.84;82.22;45294.72;5071102;28;20502;-61
2024/01/31 04:48:32;;;;;;;1.80;1.70;;;;;;;-143.84;82.20;45262.34;5073900;28;21008;-60
2024/01/31 04:50:59;;;;;;;0.80;0.50;;;;;;;-143.84;82.05;45269.97;5073970;28;20439;-60
2024/01/31 04:53:26;;;;;;;1.07;0.97;;;;;;;-143.84;82.01;45287.09;5073747;28;20479;-61
2024/01/31 04:55:53;;;;;;;1.53;1.43;;;;;;;-143.84;82.04;45275.66;5073941;28;20478;-60
2024/01/31 04:58:21;;;;;;;0.80;0.60;;;;;;;-143.84;85.96;45292.81;5073663;28;20434;-61
2024/01/31 05:00:48;;;;;;;0.80;0.40;;;;;;;-143.84;84.57;45264.25;5073694;28;20553;-61
2024/01/31 05:03:16;;;;;;;0.80;0.40;;;;;;;-143.84;83.46;45279.47;5074092;28;20875;-60
2024/01/31 05:05:43;;;;;;;0.90;0.80;;;;;;;-143.84;83.79;45287.09;5073926;28;20972;-60
2024/01/31 05:08:10;;;;;;;0.80;0.50;;;;;;;-143.84;82.38;45256.63;5073663;28;20956;-60
2024/01/31 05:10:38;;;;;;;1.73;1.60;;;;;;;-143.84;81.67;45287.09;5073765;28;20471;-61
2024/01/31 05:13:05;;;;;;;0.80;0.67;;;;;;;-143.84;81.30;45250.91;5073231;28;20493;-61
2024/01/31 05:15:34;;;;;;;0.80;0.70;;;;;;;-143.84;80.87;45292.81;5073694;28;20436;-60
2024/01/31 05:18:01;;;;;;;1.13;1.03;;;;;;;-143.84;80.99;45268.06;5073758;28;20451;-60
2024/01/31 05:20:29;;;;;;;0.80;0.47;;;;;;;-143.84;80.88;45292.81;5073230;28;20470;-61
2024/01/31 05:22:56;;;;;;;1.30;0.93;;;;;;;-143.84;80.80;45258.53;5073725;28;21009;-60
2024/01/31 05:25:23;;;;;;;0.80;0.40;;;;;;;-143.84;80.83;45296.63;5073673;28;20495;-60
2024/01/31 05:27:51;;;;;;;0.90;0.80;;;;;;;-143.84;80.72;45285.19;5073448;28;20427;-61
2024/01/31 05:30:18;;;;;;;0.80;0.70;;;;;;;-143.84;80.78;45287.09;5072641;28;20439;-60
2024/01/31 05:32:47;;;;;;;0.90;0.60;;;;;;;-143.84;80.76;45285.19;5073008;28;20448;-61
2024/01/31 05:35:14;;;;;;;1.33;1.23;;;;;;;-143.84;80.52;45302.34;5073050;28;20514;-61
2024/01/31 05:37:41;;;;;;;0.93;0.80;;;;;;;-143.84;80.48;45269.97;5073377;28;21003;-60
2024/01/31 05:40:11;;;;;;;0.80;0.40;;;;;;;-143.84;80.25;45292.81;5073128;28;20436;-61
2024/01/31 05:42:38;;;;;;;2.87;1.87;;;;;;;-143.84;80.53;45258.53;5072965;28;20504;-61
2024/01/31 05:45:06;;;;;;;0.80;0.67;;;;;;;-143.84;80.38;45287.09;5073095;28;20434;-60
2024/01/31 05:47:33;;;;;;;0.80;0.53;;;;;;;-143.84;80.30;45273.78;5072780;28;20481;-61
2024/01/31 05:50:02;;;;;;;0.80;0.50;;;;;;;-143.84;79.87;45273.78;5072812;28;20499;-61
2024/01/31 05:52:29;;;;;;;4.93;2.70;;;;;;;-143.84;80.13;45306.13;5073064;28;21316;-60
2024/01/31 05:54:56;;;;;;;0.80;0.50;;;;;;;-143.84;80.13;45269.97;5072613;28;20444;-60
2024/01/31 05:57:23;;;;;;;0.80;0.60;;;;;;;-143.84;79.91;45271.88;5072788;28;20489;-61
2024/01/31 05:59:50;;;;;;;1.43;1.33;;;;;;;-143.84;79.64;45287.09;5076478;28;20474;-61
2024/01/31 06:02:18;;;;;;;1.30;1.20;;;;;;;-143.84;79.62;45289.00;5084210;28;20496;-61
2024/01/31 06:04:45;;;;;;;0.90;0.70;;;;;;;-143.84;79.56;45285.19;5079695;28;20476;-61
2024/01/31 06:07:14;;;;;;;0.80;0.53;;;;;;;-143.84;79.44;45268.06;5081503;28;20449;-60
2024/01/31 06:09:41;;;;;;;10.63;2.97;;;;;;;-143.84;79.31;45266.16;5079489;28;20450;-61
2024/01/31 06:12:08;;;;;;;0.80;0.50;;;;;;;-143.84;79.13;45308.03;5080479;28;20636;-61
2024/01/31 06:14:36;;;;;;;1.70;1.60;;;;;;;-143.84;78.69;45285.19;5084179;28;20779;-61
2024/01/31 06:17:04;;;;;;;0.80;0.60;;;;;;;-143.84;78.74;45285.19;5083238;28;20540;-61
2024/01/31 06:19:31;;;;;;;0.80;0.50;;;;;;;-143.84;78.65;45254.72;5078856;28;20468;-61
2024/01/31 06:21:58;;;;;;;0.80;0.60;;;;;;;-143.84;77.90;45277.56;5082144;28;20837;-61
2024/01/31 06:24:27;;;;;;;0.80;0.60;;;;;;;-143.84;77.76;45292.81;5090360;28;20973;-61
2024/01/31 06:26:54;;;;;;;0.80;0.47;;;;;;;-143.84;77.60;45283.28;5085391;28;20464;-61
2024/01/31 06:29:21;;;;;;;3.87;2.47;;;;;;;-143.84;77.33;45273.78;5080042;28;20472;-60
2024/01/31 06:31:51;;;;;;;0.80;0.60;;;;;;;-143.84;76.60;45250.91;5084029;28;20447;-60
2024/01/31 06:34:19;;;;;;;0.80;0.40;;;;;;;-143.84;76.31;45268.06;5078117;28;20467;-61
2024/01/31 06:36:46;;;;;;;1.57;0.87;;;;;;;-143.84;74.56;45264.25;5078184;28;20459;-60
2024/01/31 06:39:13;;;;;;;0.80;0.47;;;;;;;-143.84;73.75;45233.78;5076774;28;20448;-61
2024/01/31 06:41:42;;;;;;;0.80;0.50;;;;;;;-143.84;73.26;45281.38;5076397;28;21022;-61
2024/01/31 06:44:09;;;;;;;0.80;0.70;;;;;;;-143.84;71.88;45254.72;5083786;28;20452;-61
2024/01/31 06:46:36;;;;;;;0.80;0.50;;;;;;;-143.84;70.90;45268.06;5081750;28;21044;-60
2024/01/31 06:49:04;;;;;;;0.80;0.60;;;;;;;-143.84;69.87;45271.88;5081435;28;20523;-61
2024/01/31 06:51:31;;;;;;;1.47;1.37;;;;;;;-143.84;70.12;45273.78;5082779;28;20531;-61
2024/01/31 06:53:59;;;;;;;0.87;0.73;;;;;;;-143.84;69.91;45239.50;5085169;28;20455;-60
2024/01/31 06:56:26;;;;;;;0.83;0.67;;;;;;;-143.84;69.46;45271.88;5087257;28;20446;-60
2024/01/31 06:58:56;;;;;;;0.80;0.60;;;;;;;-143.84;69.54;45247.09;5088239;28;21173;-60
2024/01/31 07:01:24;;;;;;;0.80;0.43;;;;;;;-143.84;69.19;45235.69;5082640;28;20480;-60
2024/01/31 07:03:51;;;;;;;0.93;0.83;;;;;;;-143.84;69.39;45245.19;5078593;28;20445;-61
2024/01/31 07:06:19;;;;;;;0.80;0.50;;;;;;;-143.84;67.66;45260.44;5083166;28;20453;-61
2024/01/31 07:08:46;;;;;;;0.80;0.40;;;;;;;-143.84;67.28;45256.63;5082440;28;20441;-61
2024/01/31 07:11:13;;;;;;;1.40;1.30;;;;;;;-143.84;66.17;45254.72;5077528;28;20456;-60
2024/01/31 07:13:41;;;;;;;1.30;1.13;;;;;;;-143.84;65.19;45237.59;5082230;28;20445;-60
2024/01/31 07:16:10;;;;;;;0.80;0.50;;;;;;;-143.84;64.77;45210.94;5076879;28;21361;-60
2024/01/31 07:18:39;;;;;;;1.53;1.43;;;;;;;-143.84;64.02;45247.09;5080872;28;20450;-60
2024/01/31 07:21:07;;;;;;;2.40;2.20;;;;;;;-143.84;62.57;45231.88;5088300;28;20567;-61
2024/01/31 07:23:34;;;;;;;1.47;1.37;;;;;;;-143.84;61.09;45233.78;5083675;28;20453;-61
2024/01/31 07:26:01;;;;;;;1.10;1.00;;;;;;;-143.84;59.32;45228.06;5071822;28;20517;-60
2024/01/31 07:28:28;;;;;;;2.00;1.83;;;;;;;-143.84;58.82;45228.06;5070427;28;20441;-61
2024/01/31 07:30:57;;;;;;;1.17;1.07;;;;;;;-143.84;57.33;45262.34;5070778;28;20505;-61
2024/01/31 07:33:26;;;;;;;3.20;1.80;;;;;;;-143.84;56.87;45229.97;5074751;28;20449;-60
2024/01/31 07:35:53;;;;;;;1.20;1.10;;;;;;;-143.84;55.08;45235.69;5078648;28;20469;-60
2024/01/31 07:38:21;;;;;;;3.20;2.50;;;;;;;-143.84;53.69;45233.78;5082442;28;21118;-61
2024/01/31 07:40:48;;;;;;;3.50;3.23;;;;;;;-143.84;52.81;45207.13;5072902;28;21005;-61
2024/01/31 07:43:15;;;;;;;1.10;0.93;;;;;;;-143.84;52.79;45233.78;5082039;28;20443;-61
2024/01/31 07:45:43;;;;;;;1.67;1.00;;;;;;;-143.84;52.34;45222.34;5083426;28;20436;-61
2024/01/31 07:48:10;;;;;;;3.03;1.23;;;;;;;-143.84;50.76;45239.50;5074860;28;20513;-61
2024/01/31 07:50:39;;;;;;;3.33;1.77;;;;;;;-143.84;51.25;45233.78;5078766;28;20466;-61
2024/01/31 07:53:06;;;;;;;0.87;0.70;;;;;;;-143.84;50.03;45216.63;5075909;28;20467;-61
2024/01/31 07:55:33;;;;;;;2.93;2.73;;;;;;;-143.84;49.23;45216.63;5083524;28;20529;-60
2024/01/31 07:58:00;;;;;;;0.80;0.50;;;;;;;-143.84;48.36;45214.72;5085714;28;20458;-61
2024/01/31 08:00:27;;;;;;;1.00;0.70;;;;;;;-143.84;47.42;45212.84;5075801;28;20515;-61
2024/01/31 08:02:54;;;;;;;3.73;1.47;;;;;;;-143.84;46.86;45199.50;5080559;28;21158;-60
2024/01/31 08:05:21;;;;;;;3.10;2.80;;;;;;;-143.84;46.58;45199.50;5075088;28;21381;-61
2024/01/31 08:07:50;;;;;;;1.17;1.10;;;;;;;-143.84;45.55;45189.97;5078148;28;20994;-61
2024/01/31 08:10:17;;;;;;;1.50;1.40;;;;;;;-143.84;45.47;45220.44;5073676;28;20920;-61
2024/01/31 08:12:46;;;;;;;1.00;0.90;;;;;;;-143.84;45.90;45203.31;5075537;28;21039;-61
2024/01/31 08:15:13;;;;;;;5.60;2.00;;;;;;;-143.84;45.55;45220.44;5072337;28;20448;-61
2024/01/31 08:17:41;;;;;;;1.30;0.80;;;;;;;-143.84;45.04;45180.47;5077579;28;20462;-61
2024/01/31 08:20:09;;;;;;;4.13;1.80;;;;;;;-143.84;44.54;45188.06;5071833;28;20974;-61
2024/01/31 08:22:36;;;;;;;1.20;1.10;;;;;;;-143.84;43.88;45189.97;5076393;28;20480;-61
2024/01/31 08:25:05;;;;;;;2.07;1.90;;;;;;;-143.84;43.79;45195.69;5082101;28;20440;-61
2024/01/31 08:27:33;;;;;;;15.00;2.07;;;;;;;-143.84;43.27;45191.88;5094193;28;21324;-60
2024/01/31 08:30:00;;;;;;;1.00;0.77;;;;;;;-143.84;43.42;45191.88;5091628;28;20431;-62
2024/01/31 08:32:28;;;;;;;1.53;0.93;;;;;;;-143.84;42.87;45209.03;5082029;28;20554;-61
2024/01/31 08:34:55;;;;;;;3.47;1.70;;;;;;;-143.84;42.02;45165.22;5080700;28;20460;-59
2024/01/31 08:37:23;;;;;;;2.60;1.83;;;;;;;-143.84;41.80;45174.75;5079783;28;20440;-59
2024/01/31 08:39:50;;;;;;;0.80;0.50;;;;;;;-143.84;42.22;45191.88;5082288;28;20463;-59
2024/01/31 08:42:18;;;;;;;1.67;1.13;;;;;;;-143.84;41.79;45184.25;5080302;28;20488;-59
2024/01/31 08:44:46;;;;;;;4.27;1.83;;;;;;;-143.84;41.74;45163.31;5077124;28;20440;-59
2024/01/31 08:47:13;;;;;;;0.80;0.50;;;;;;;-143.84;41.62;45172.84;5078693;28;20452;-59
2024/01/31 08:49:40;;;;;;;1.43;1.27;;;;;;;-143.84;41.46;45178.56;5084978;28;20440;-59
2024/01/31 08:52:07;;;;;;;1.03;0.93;;;;;;;-143.84;40.69;45197.59;5080525;28;20510;-59
2024/01/31 08:54:35;;;;;;;1.73;1.00;;;;;;;-143.84;39.97;45178.56;5078819;28;20964;-59
2024/01/31 08:57:02;;;;;;;0.90;0.80;;;;;;;-143.84;39.58;45186.16;5079529;28;20436;-59
2024/01/31 08:59:30;;;;;;;5.40;1.50;;;;;;;-143.84;39.04;45159.50;5083390;28;20454;-59
2024/01/31 09:01:58;;;;;;;7.63;1.90;;;;;;;-143.84;39.31;45159.50;5080553;28;21004;-59
2024/01/31 09:04:25;;;;;;;1.67;1.50;;;;;;;-143.84;38.75;45150.00;5083626;28;20440;-60
2024/01/31 09:06:52;;;;;;;1.10;0.80;;;;;;;-143.84;38.17;45165.22;5081154;28;20452;-59
2024/01/31 09:09:19;;;;;;;2.10;1.80;;;;;;;-143.84;37.85;45161.41;5082748;28;20449;-59
2024/01/31 09:11:46;;;;;;;1.43;1.33;;;;;;;-143.84;37.84;45151.91;5083612;28;20489;-59
2024/01/31 09:14:14;;;;;;;0.90;0.70;;;;;;;-143.84;37.19;45159.50;5080508;28;20441;-59
2024/01/31 09:16:42;;;;;;;1.00;0.70;;;;;;;-143.84;36.76;45159.50;5082560;28;20444;-60
2024/01/31 09:19:10;;;;;;;4.88;2.40;;;;;;;-143.84;37.03;45140.47;5080674;28;20440;-59
2024/01/31 09:21:37;;;;;;;2.10;1.70;;;;;;;-143.84;37.40;45169.03;5080774;28;20230;-59
2024/01/31 09:24:05;;;;;;;1.77;1.20;;;;;;;-143.84;36.67;45144.28;5080939;28;20432;-59
2024/01/31 09:26:32;;;;;;;3.03;1.83;;;;;;;-143.84;36.24;45197.59;5080996;28;20447;-59
2024/01/31 09:28:59;;;;;;;1.73;0.77;;;;;;;-143.84;35.28;45151.91;5080879;28;20521;-59
2024/01/31 09:31:28;;;;;;;1.20;1.00;;;;;;;-143.84;35.76;45148.09;5083057;28;20443;-59
2024/01/31 09:33:56;;;;;;;0.80;0.50;;;;;;;-143.84;36.03;45148.09;5081838;28;20911;-59
2024/01/31 09:36:24;;;;;;;1.20;0.83;;;;;;;-143.84;35.97;45138.56;5078485;28;20444;-59
2024/01/31 09:38:51;;;;;;;0.97;0.87;;;;;;;-143.84;35.70;45150.00;5083564;28;20444;-59
2024/01/31 09:41:19;;;;;;;0.97;0.87;;;;;;;-143.84;35.56;45167.13;5083516;28;20440;-60
2024/01/31 09:43:46;;;;;;;0.90;0.70;;;;;;;-143.84;36.06;45155.69;5086411;28;20505;-60
2024/01/31 09:46:14;;;;;;;1.03;0.93;;;;;;;-143.84;35.48;45140.47;5083692;28;20458;-60
2024/01/31 09:48:42;;;;;;;1.20;0.63;;;;;;;-143.84;35.13;45129.03;5086164;28;20462;-60
2024/01/31 09:51:11;;;;;;;1.00;0.87;;;;;;;-143.84;35.46;45165.22;5085737;28;20988;-60
2024/01/31 09:53:38;;;;;;;1.37;1.27;;;;;;;-143.84;34.85;45132.84;5083808;28;20455;-59
2024/01/31 09:56:07;;;;;;;1.00;0.83;;;;;;;-143.84;34.82;45148.09;5083919;28;20513;-60
2024/01/31 09:58:35;;;;;;;0.90;0.70;;;;;;;-143.84;34.14;45151.91;5082865;28;20478;-59
2024/01/31 10:01:04;;;;;;;1.20;0.63;;;;;;;-143.84;34.86;45157.59;5085725;28;21060;-59
2024/01/31 10:03:31;;;;;;;2.23;2.03;;;;;;;-143.84;34.37;45151.91;5082097;28;20894;-60
2024/01/31 10:05:58;;;;;;;1.07;0.97;;;;;;;-143.84;33.57;45134.75;5085103;28;20840;-59
2024/01/31 10:08:30;;;;;;;4.00;1.60;;;;;;;-143.84;33.94;45161.41;5078850;28;20516;-59
2024/01/31 10:10:57;;;;;;;0.90;0.80;;;;;;;-143.84;35.13;45163.31;5082610;28;20962;-60
2024/01/31 10:13:24;;;;;;;2.50;0.80;;;;;;;-143.84;35.59;45161.41;5081885;28;20484;-60
2024/01/31 10:15:52;;;;;;;0.90;0.73;;;;;;;-143.84;35.02;45170.94;5082395;28;20783;-59
2024/01/31 10:18:19;;;;;;;1.83;0.70;;;;;;;-143.84;34.14;45157.59;5081399;28;20913;-59
2024/01/31 10:20:51;;;;;;;1.10;0.67;;;;;;;-143.84;34.75;45142.38;5084435;28;20443;-59
2024/01/31 10:23:18;;;;;;;0.93;0.83;;;;;;;-143.84;34.53;45140.47;5078915;28;20483;-59
2024/01/31 10:25:47;;;;;;;0.93;0.83;;;;;;;-143.84;34.22;45140.47;5083144;28;20440;-60
2024/01/31 10:28:18;;;;;;;0.80;0.50;;;;;;;-143.84;34.00;45136.66;5083811;28;21570;-59
2024/01/31 10:30:46;;;;;;;1.77;0.90;;;;;;;-143.84;34.00;45142.38;5086587;28;20448;-59
2024/01/31 10:33:13;;;;;;;1.00;0.90;;;;;;;-143.84;34.09;45148.09;5084579;28;20826;-59
2024/01/31 10:35:43;;;;;;;1.33;1.23;;;;;;;-143.84;33.75;45121.44;5084344;28;20542;-60
2024/01/31 10:38:11;;;;;;;0.90;0.80;;;;;;;-143.84;33.96;45142.38;5077364;28;20457;-59
2024/01/31 10:40:41;;;;;;;2.60;1.27;;;;;;;-143.84;32.92;45108.09;5081471;28;20449;-59
2024/01/31 10:43:10;;;;;;;3.53;1.43;;;;;;;-143.84;33.38;45165.22;5084775;28;20489;-59
2024/01/31 10:45:38;;;;;;;2.40;1.47;;;;;;;-143.84;33.13;45148.09;5085903;28;20475;-59
2024/01/31 10:48:06;;;;;;;0.90;0.70;;;;;;;-143.84;32.77;45144.28;5086605;28;20444;-60
2024/01/31 10:50:33;;;;;;;0.80;0.50;;;;;;;-143.84;34.35;45150.00;5086397;28;20462;-60
2024/01/31 10:53:03;;;;;;;1.17;0.97;;;;;;;-143.84;34.08;45155.69;5083581;28;20437;-59
2024/01/31 10:55:32;;;;;;;0.90;0.70;;;;;;;-143.84;34.20;45134.75;5082277;28;20869;-59
2024/01/31 10:58:01;;;;;;;0.80;0.50;;;;;;;-143.84;34.64;45170.94;5084017;28;20440;-59
2024/01/31 11:00:30;;;;;;;1.03;0.93;;;;;;;-143.84;35.10;45123.34;5084419;28;20814;-59
2024/01/31 11:02:58;;;;;;;1.07;0.97;;;;;;;-143.84;36.36;45144.28;5085360;28;20606;-60
2024/01/31 11:05:27;;;;;;;1.60;1.50;;;;;;;-143.84;36.61;45161.41;5084002;28;20814;-59
2024/01/31 11:07:54;;;;;;;1.20;0.80;;;;;;;-143.84;34.75;45161.41;5080754;28;20448;-59
2024/01/31 11:11:13;;;;;;;1.37;1.03;;;;;;;-143.84;35.09;45117.63;5080617;28;20455;-59
2024/01/31 11:13:41;;;;;;;0.90;0.70;;;;;;;-143.84;35.84;45153.81;5034423;28;20454;-59
2024/01/31 11:16:09;;;;;;;1.93;1.10;;;;;;;-143.84;35.82;45144.28;5034124;28;20832;-59
2024/01/31 11:18:37;;;;;;;0.80;0.50;;;;;;;-143.84;36.25;45163.31;5034014;28;20454;-59